Time;durP1;ratioP1;P1;durP2;ratioP2;P2;SDS_P1;SDS_P2;PMS_P1;PMS_P2;Temp;Humidity;BMP_temperature;BMP_pressure;BME280_temperature;BME280_humidity;BME280_pressure;Samples;Min_cycle;Max_cycle;Signal;HPM_P1;HPM_P2
2022/05/11 00:01:36;;;;;;;14.05;8.85;;;13.10;99.90;;;;;;5019999;28;20049;-88
2022/05/11 00:04:05;;;;;;;15.32;8.60;;;13.10;99.90;;;;;;5024674;28;20056;-89
2022/05/11 00:06:31;;;;;;;15.57;8.13;;;13.10;99.90;;;;;;5016893;28;20097;-88
2022/05/11 00:08:57;;;;;;;13.32;8.13;;;13.10;99.90;;;;;;5016233;28;21276;-89
2022/05/11 00:11:28;;;;;;;10.27;7.57;;;13.10;99.90;;;;;;5015984;28;20194;-88
2022/05/11 00:13:59;;;;;;;13.98;8.40;;;13.20;99.90;;;;;;5024269;28;20051;-88
2022/05/11 00:16:36;;;;;;;17.00;8.80;;;13.30;99.90;;;;;;5019154;28;20043;-89
2022/05/11 00:19:02;;;;;;;14.52;8.45;;;13.20;99.90;;;;;;5035026;28;20485;-90
2022/05/11 00:21:29;;;;;;;11.43;8.02;;;13.20;99.90;;;;;;5021775;28;20048;-89
2022/05/11 00:24:01;;;;;;;13.48;9.02;;;13.20;99.90;;;;;;5024701;28;20066;-89
2022/05/11 00:26:30;;;;;;;15.07;9.10;;;13.30;99.90;;;;;;5020276;28;20041;-89
2022/05/11 00:28:59;;;;;;;15.43;8.45;;;13.20;99.90;;;;;;5033828;28;20048;-89
2022/05/11 00:31:24;;;;;;;14.02;8.40;;;13.20;99.90;;;;;;5034823;28;20043;-88
2022/05/11 00:33:58;;;;;;;15.45;8.40;;;13.30;99.90;;;;;;5016432;28;20049;-90
2022/05/11 00:36:25;;;;;;;13.50;8.67;;;13.30;99.90;;;;;;5025409;28;20040;-89
2022/05/11 00:38:50;;;;;;;12.90;8.02;;;13.30;99.90;;;;;;5032602;28;20029;-89
2022/05/11 00:41:24;;;;;;;15.30;9.23;;;13.30;99.90;;;;;;5034393;28;20052;-89
2022/05/11 00:43:59;;;;;;;14.95;8.02;;;13.30;99.90;;;;;;5033182;28;20120;-88
2022/05/11 00:46:44;;;;;;;12.63;8.02;;;13.30;99.90;;;;;;5034474;28;20036;-88
2022/05/11 00:49:36;;;;;;;13.10;8.40;;;13.30;99.90;;;;;;5039374;28;20044;-88
2022/05/11 00:52:34;;;;;;;13.82;8.60;;;13.30;99.90;;;;;;5021185;28;20100;-89
2022/05/11 00:55:03;;;;;;;12.45;8.48;;;13.30;99.90;;;;;;5014328;28;20758;-89
2022/05/11 00:57:46;;;;;;;12.90;8.70;;;13.30;99.90;;;;;;5042982;28;20477;-89
2022/05/11 01:00:15;;;;;;;14.20;8.80;;;13.30;99.90;;;;;;5037429;28;20055;-90
2022/05/11 01:02:47;;;;;;;11.88;7.95;;;13.30;99.90;;;;;;5035651;28;20044;-89
2022/05/11 01:05:15;;;;;;;12.38;8.55;;;13.40;99.90;;;;;;5034641;28;20134;-89
2022/05/11 01:07:41;;;;;;;13.00;8.07;;;13.30;99.90;;;;;;5027142;28;20470;-89
2022/05/11 01:10:13;;;;;;;11.65;7.95;;;13.30;99.90;;;;;;5022681;28;20128;-88
2022/05/11 01:12:43;;;;;;;13.85;7.95;;;13.30;99.90;;;;;;5039716;28;20036;-89
2022/05/11 01:15:14;;;;;;;14.15;8.50;;;13.30;99.90;;;;;;5022004;28;20635;-90
2022/05/11 01:17:43;;;;;;;11.93;8.23;;;13.30;99.90;;;;;;5027120;28;20045;-89
2022/05/11 01:20:22;;;;;;;11.63;8.52;;;13.30;99.90;;;;;;5040499;28;20373;-90
2022/05/11 01:22:57;;;;;;;13.45;8.18;;;13.30;99.90;;;;;;5018574;28;20175;-89
2022/05/11 01:25:26;;;;;;;12.68;7.80;;;13.30;99.90;;;;;;5017723;28;20041;-89
2022/05/11 01:28:11;;;;;;;11.50;7.60;;;13.30;99.90;;;;;;5017740;28;20063;-90
2022/05/11 01:30:51;;;;;;;13.43;7.53;;;13.20;99.90;;;;;;5020614;28;20075;-91
2022/05/11 01:33:22;;;;;;;13.18;7.72;;;13.20;99.90;;;;;;5027190;28;20586;-89
2022/05/11 01:36:15;;;;;;;12.07;7.68;;;13.20;99.90;;;;;;5023918;28;20076;-89
2022/05/11 01:38:49;;;;;;;9.82;6.60;;;13.20;99.90;;;;;;5039373;28;20070;-89
2022/05/11 01:41:26;;;;;;;10.15;7.10;;;13.20;99.90;;;;;;5045602;28;20050;-89
2022/05/11 01:44:01;;;;;;;9.68;6.38;;;13.20;99.90;;;;;;5023099;28;20052;-89
2022/05/11 01:46:38;;;;;;;12.93;6.35;;;13.20;99.90;;;;;;5025571;28;20047;-90
2022/05/11 01:49:05;;;;;;;10.48;6.30;;;13.20;99.90;;;;;;5035466;28;20209;-88
2022/05/11 01:51:39;;;;;;;8.65;6.45;;;13.20;99.90;;;;;;5034326;28;20037;-90
2022/05/11 01:54:08;;;;;;;11.70;6.18;;;13.20;99.90;;;;;;5046649;28;20040;-90
2022/05/11 01:56:37;;;;;;;12.65;7.18;;;13.20;99.90;;;;;;5039119;28;20056;-88
2022/05/11 01:59:08;;;;;;;9.30;6.80;;;13.10;99.90;;;;;;5024854;28;20451;-88
2022/05/11 02:01:45;;;;;;;10.05;6.70;;;13.10;99.90;;;;;;5021335;28;20044;-89
2022/05/11 02:09:43;;;;;;;11.68;6.35;;;13.10;99.90;;;;;;5036160;28;20471;-90
2022/05/11 02:12:10;;;;;;;8.85;6.32;;;13.10;99.90;;;;;;5019331;28;20040;-90
2022/05/11 02:14:37;;;;;;;10.55;6.95;;;13.10;99.90;;;;;;5016047;28;20091;-89
2022/05/11 02:17:08;;;;;;;7.82;6.13;;;13.10;99.90;;;;;;5019411;28;20111;-89
2022/05/11 02:19:39;;;;;;;12.23;7.18;;;13.00;99.90;;;;;;5034938;28;20097;-88
2022/05/11 02:22:07;;;;;;;9.48;6.25;;;13.10;99.90;;;;;;5031168;28;20105;-89
2022/05/11 02:24:33;;;;;;;7.25;6.00;;;13.00;99.90;;;;;;5025673;28;20044;-89
2022/05/11 02:27:03;;;;;;;9.15;6.07;;;13.10;99.90;;;;;;5023920;28;20037;-90
2022/05/11 02:29:37;;;;;;;9.65;5.97;;;13.10;99.90;;;;;;5032760;28;20084;-89
2022/05/11 02:32:09;;;;;;;11.80;5.78;;;13.10;99.90;;;;;;5022887;28;20049;-88
2022/05/11 02:37:19;;;;;;;8.98;5.95;;;13.10;99.90;;;;;;5058167;28;20044;-90
2022/05/11 02:39:54;;;;;;;8.85;6.20;;;13.10;99.90;;;;;;5021386;28;20048;-89
2022/05/11 02:42:20;;;;;;;9.50;6.43;;;13.00;99.90;;;;;;5027685;28;20717;-89
2022/05/11 02:44:46;;;;;;;10.10;6.28;;;13.10;99.90;;;;;;5033129;28;20036;-88
2022/05/11 02:47:14;;;;;;;10.18;6.13;;;13.10;99.90;;;;;;5037461;28;20044;-89
2022/05/11 02:49:45;;;;;;;8.88;5.68;;;13.10;99.90;;;;;;5018376;28;20068;-90
2022/05/11 02:52:14;;;;;;;9.88;5.60;;;13.10;99.90;;;;;;5027627;28;20052;-88
2022/05/11 02:54:46;;;;;;;9.27;5.88;;;13.10;99.90;;;;;;5022561;28;20383;-88
2022/05/11 02:57:13;;;;;;;8.73;5.63;;;13.10;99.90;;;;;;5019390;28;20048;-89
2022/05/11 02:59:39;;;;;;;10.88;5.85;;;13.20;99.90;;;;;;5018216;28;20108;-88
2022/05/11 03:02:07;;;;;;;9.32;5.30;;;13.10;99.90;;;;;;5020775;28;20658;-90
2022/05/11 03:04:33;;;;;;;8.25;5.38;;;13.10;99.90;;;;;;5018921;28;20052;-89
2022/05/11 03:07:02;;;;;;;8.32;5.35;;;13.10;99.90;;;;;;5021679;28;20037;-89
2022/05/11 03:09:28;;;;;;;8.43;5.70;;;13.10;99.90;;;;;;5032347;28;20106;-89
2022/05/11 03:12:03;;;;;;;8.15;5.63;;;13.20;99.90;;;;;;5033251;28;20037;-89
2022/05/11 03:14:28;;;;;;;;;;;13.10;99.90;;;;;;5027872;28;20562;-89
2022/05/11 03:16:54;;;;;;;7.68;5.40;;;13.10;99.90;;;;;;5026804;28;20011;-89
2022/05/11 03:19:20;;;;;;;7.53;5.32;;;13.10;99.90;;;;;;5033114;28;20144;-89
2022/05/11 03:21:48;;;;;;;6.50;5.50;;;13.10;99.90;;;;;;5053409;28;20127;-89
2022/05/11 03:24:14;;;;;;;8.30;5.80;;;13.10;99.90;;;;;;5033333;28;20063;-89
2022/05/11 03:26:45;;;;;;;12.60;5.72;;;13.10;99.90;;;;;;5018583;28;20559;-88
2022/05/11 03:29:14;;;;;;;8.23;5.70;;;13.20;99.90;;;;;;5020735;28;20546;-90
2022/05/11 03:34:37;;;;;;;13.00;5.78;;;13.10;99.90;;;;;;5033655;28;20061;-89
2022/05/11 03:37:16;;;;;;;10.27;5.70;;;13.10;99.90;;;;;;5041644;28;20056;-89
2022/05/11 03:39:43;;;;;;;8.90;6.38;;;13.10;99.90;;;;;;5015615;28;20128;-90
2022/05/11 03:42:17;;;;;;;10.82;6.22;;;13.10;99.90;;;;;;5017317;28;20107;-89
2022/05/11 03:44:43;;;;;;;11.70;6.43;;;13.10;99.90;;;;;;5037333;28;20047;-89
2022/05/11 03:47:09;;;;;;;10.15;6.07;;;13.10;99.90;;;;;;5021895;28;20385;-88
2022/05/11 03:49:37;;;;;;;11.10;6.40;;;13.10;99.90;;;;;;5020362;28;20531;-89
2022/05/11 03:52:08;;;;;;;13.40;6.45;;;13.10;99.90;;;;;;5031792;28;19974;-90
2022/05/11 03:54:34;;;;;;;10.65;6.07;;;13.20;99.90;;;;;;5023604;28;20072;-90
2022/05/11 03:57:00;;;;;;;10.73;6.65;;;13.20;99.90;;;;;;5026736;28;20544;-89
2022/05/11 03:59:26;;;;;;;9.63;6.63;;;13.20;99.90;;;;;;5036341;28;20108;-89
2022/05/11 04:01:58;;;;;;;9.55;6.43;;;13.10;99.90;;;;;;5020175;28;20613;-90
2022/05/11 04:04:29;;;;;;;10.93;6.10;;;13.20;99.90;;;;;;5024678;28;20040;-89
2022/05/11 04:06:55;;;;;;;8.43;6.20;;;13.20;99.90;;;;;;5039133;28;20493;-89
2022/05/11 04:09:21;;;;;;;9.18;6.20;;;13.20;99.90;;;;;;5019363;28;20043;-90
2022/05/11 04:11:57;;;;;;;10.40;6.13;;;13.20;99.90;;;;;;5022085;28;20183;-91
2022/05/11 04:14:23;;;;;;;8.02;5.78;;;13.20;99.90;;;;;;5018236;28;20124;-89
2022/05/11 04:16:59;;;;;;;10.52;5.20;;;13.20;99.90;;;;;;5021981;28;20150;-90
2022/05/11 04:19:28;;;;;;;10.07;5.68;;;13.20;99.90;;;;;;5016537;28;20040;-89
2022/05/11 04:22:02;;;;;;;10.30;5.57;;;13.30;99.90;;;;;;5022658;28;20513;-89
2022/05/11 04:24:30;;;;;;;9.45;5.65;;;13.30;99.90;;;;;;5042008;28;20041;-90
2022/05/11 04:26:56;;;;;;;11.38;5.85;;;13.30;99.90;;;;;;5019619;28;20075;-89
2022/05/11 04:29:22;;;;;;;11.82;5.55;;;13.40;99.90;;;;;;5033346;28;20080;-89
2022/05/11 04:31:53;;;;;;;6.85;5.35;;;13.40;99.90;;;;;;5035221;28;20041;-89
2022/05/11 04:34:19;;;;;;;12.07;5.57;;;13.40;99.90;;;;;;5038781;28;20155;-89
2022/05/11 04:36:45;;;;;;;11.43;5.72;;;13.40;99.90;;;;;;5021595;28;20136;-89
2022/05/11 04:39:10;;;;;;;11.45;5.13;;;13.50;99.90;;;;;;5025555;28;20040;-88
2022/05/11 04:41:37;;;;;;;8.50;5.00;;;13.50;99.90;;;;;;5026082;28;20039;-89
2022/05/11 04:44:05;;;;;;;9.40;5.57;;;13.50;99.90;;;;;;5018483;28;20124;-89
2022/05/11 04:46:34;;;;;;;8.05;5.00;;;13.60;99.90;;;;;;5018621;28;20303;-89
2022/05/11 04:49:24;;;;;;;11.75;5.78;;;13.60;99.90;;;;;;5024663;28;20076;-90
2022/05/11 04:52:02;;;;;;;9.75;5.40;;;13.60;99.90;;;;;;5024882;28;20455;-89
2022/05/11 04:54:30;;;;;;;9.65;5.32;;;13.70;99.90;;;;;;5034796;28;20037;-89
2022/05/11 04:56:59;;;;;;;10.68;5.53;;;13.60;99.90;;;;;;5026604;28;20619;-88
2022/05/11 04:59:24;;;;;;;9.98;5.50;;;13.70;99.90;;;;;;5039162;28;20465;-88
2022/05/11 05:01:51;;;;;;;8.75;4.78;;;13.70;99.90;;;;;;5034943;28;20048;-90
2022/05/11 05:04:22;;;;;;;11.90;5.47;;;13.70;99.90;;;;;;5022022;28;20071;-89
2022/05/11 05:06:47;;;;;;;10.63;4.85;;;13.70;99.90;;;;;;5038214;28;20044;-88
2022/05/11 05:09:15;;;;;;;10.35;5.35;;;13.80;96.30;;;;;;5020630;28;20074;-89
2022/05/11 05:11:50;;;;;;;11.38;5.90;;;13.80;90.80;;;;;;5033056;28;20431;-89
2022/05/11 05:14:16;;;;;;;8.00;5.55;;;13.80;99.90;;;;;;5027781;28;20037;-88
2022/05/11 05:16:42;;;;;;;10.07;5.18;;;13.90;89.90;;;;;;5040535;28;20117;-90
2022/05/11 05:19:09;;;;;;;12.27;5.25;;;13.90;99.90;;;;;;5038135;28;20075;-89
2022/05/11 05:21:35;;;;;;;9.25;4.70;;;14.00;97.70;;;;;;5020841;28;20080;-90
2022/05/11 05:24:01;;;;;;;11.20;5.07;;;14.00;94.40;;;;;;5026238;28;20146;-89
2022/05/11 05:26:29;;;;;;;10.75;5.15;;;14.00;99.60;;;;;;5035461;28;20157;-89
2022/05/11 05:31:43;;;;;;;10.45;4.97;;;14.10;93.10;;;;;;5036301;28;20048;-89
2022/05/11 05:34:08;;;;;;;9.48;5.03;;;14.10;90.80;;;;;;5033918;28;20402;-89
2022/05/11 05:36:36;;;;;;;8.70;5.20;;;14.20;90.40;;;;;;5034515;28;20044;-89
2022/05/11 05:39:03;;;;;;;11.38;5.15;;;14.20;65.60;;;;;;5019735;28;20045;-89
2022/05/11 05:41:29;;;;;;;9.85;5.20;;;14.20;75.50;;;;;;5034800;28;20048;-87
2022/05/11 05:43:56;;;;;;;11.73;5.18;;;14.30;99.90;;;;;;5027294;28;20047;-90
2022/05/11 05:46:22;;;;;;;9.88;5.80;;;14.30;93.00;;;;;;5035292;28;20037;-90
2022/05/11 05:48:48;;;;;;;10.48;5.57;;;14.40;74.80;;;;;;5010076;28;20100;-89
2022/05/11 05:51:16;;;;;;;12.95;5.25;;;14.40;22.70;;;;;;5018200;28;20045;-89
2022/05/11 05:53:43;;;;;;;13.48;5.88;;;14.50;49.00;;;;;;5005945;28;20172;-89
2022/05/11 05:56:10;;;;;;;11.07;5.85;;;14.60;43.00;;;;;;5003061;28;20041;-90
2022/05/11 05:58:36;;;;;;;10.20;5.18;;;14.60;88.00;;;;;;5013511;28;20627;-88
2022/05/11 06:01:06;;;;;;;10.20;5.43;;;14.60;68.00;;;;;;5034294;28;20103;-89
2022/05/11 06:03:35;;;;;;;10.63;5.53;;;14.70;73.70;;;;;;5017797;28;20559;-88
2022/05/11 06:06:01;;;;;;;11.27;6.03;;;14.80;41.40;;;;;;5017043;28;20133;-88
2022/05/11 06:08:29;;;;;;;10.85;5.97;;;14.80;35.10;;;;;;5030410;28;20076;-89
2022/05/11 06:10:57;;;;;;;12.60;5.93;;;14.90;37.90;;;;;;5015940;28;20045;-89
2022/05/11 06:13:26;;;;;;;12.32;5.72;;;14.90;38.70;;;;;;5005125;28;20052;-89
2022/05/11 06:15:54;;;;;;;9.68;5.78;;;15.00;26.30;;;;;;5018952;28;20065;-89
2022/05/11 06:18:21;;;;;;;16.63;6.70;;;15.10;40.30;;;;;;5008393;28;20063;-89
2022/05/11 06:20:51;;;;;;;12.40;5.50;;;15.20;22.10;;;;;;5003333;28;20612;-90
2022/05/11 06:23:20;;;;;;;11.18;5.03;;;15.20;1.00;;;;;;5017882;28;20132;-89
2022/05/11 06:25:49;;;;;;;13.40;5.88;;;15.20;1.00;;;;;;5005187;28;20037;-89
2022/05/11 06:28:18;;;;;;;9.63;5.68;;;15.30;1.00;;;;;;5017876;28;20052;-89
2022/05/11 06:30:47;;;;;;;8.88;5.35;;;15.40;1.00;;;;;;5033708;28;20409;-89
2022/05/11 06:33:16;;;;;;;12.38;5.70;;;15.50;1.00;;;;;;5039831;28;20044;-88
2022/05/11 06:35:42;;;;;;;10.95;5.55;;;15.60;1.00;;;;;;5010833;28;20051;-89
2022/05/11 06:38:09;;;;;;;10.65;5.93;;;15.60;1.00;;;;;;5019188;28;20112;-89
2022/05/11 06:40:38;;;;;;;12.20;5.68;;;15.70;1.00;;;;;;5003263;28;20402;-88
2022/05/11 06:43:05;;;;;;;11.82;6.03;;;16.00;1.00;;;;;;5000469;28;20116;-90
2022/05/11 06:45:31;;;;;;;13.15;5.47;;;16.00;1.00;;;;;;5001007;28;20037;-90
2022/05/11 06:48:01;;;;;;;12.68;6.07;;;16.10;1.00;;;;;;5002608;28;20104;-90
2022/05/11 06:50:29;;;;;;;12.68;5.75;;;16.10;1.00;;;;;;5000625;28;20165;-91
2022/05/11 06:52:56;;;;;;;10.63;5.88;;;16.10;1.00;;;;;;5002466;28;20228;-90
2022/05/11 07:00:53;;;;;;;10.18;5.60;;;15.80;1.00;;;;;;5015569;28;20048;-91
2022/05/11 07:03:25;;;;;;;10.80;6.28;;;16.10;1.00;;;;;;5014305;28;20037;-90
2022/05/11 07:05:51;;;;;;;9.88;5.63;;;16.10;1.00;;;;;;4997924;28;20041;-89
2022/05/11 07:08:16;;;;;;;11.80;5.97;;;16.00;1.00;;;;;;5013624;28;20396;-91
2022/05/11 07:12:17;;;;;;;16.63;6.60;;;16.10;1.00;;;;;;5001562;28;20120;-89
2022/05/11 07:13:31;;;;;;;12.65;6.45;;;16.00;1.00;;;;;;5011262;28;20041;-90
2022/05/11 07:15:57;;;;;;;12.25;5.97;;;16.00;1.00;;;;;;5016053;28;20036;-90
2022/05/11 07:18:23;;;;;;;13.18;6.18;;;16.00;1.00;;;;;;5018694;28;20033;-89
2022/05/11 07:20:51;;;;;;;11.90;5.88;;;16.00;1.00;;;;;;5016704;28;20173;-90
2022/05/11 07:23:17;;;;;;;14.50;5.93;;;16.10;1.00;;;;;;5015322;28;20037;-91
2022/05/11 07:25:44;;;;;;;13.52;5.63;;;16.10;1.00;;;;;;5002499;28;20040;-90
2022/05/11 07:28:13;;;;;;;11.88;5.55;;;16.30;1.00;;;;;;5000077;28;20045;-90
2022/05/11 07:30:39;;;;;;;14.32;6.65;;;16.40;99.90;;;;;;5006100;28;20178;-90
2022/05/11 07:33:05;;;;;;;13.18;6.00;;;16.40;99.90;;;;;;5014717;28;20037;-89
2022/05/11 07:35:34;;;;;;;11.68;6.22;;;16.50;99.90;;;;;;4993708;28;20053;-89
2022/05/11 07:38:00;;;;;;;13.68;6.47;;;16.60;99.90;;;;;;5002699;28;20043;-90
2022/05/11 07:40:26;;;;;;;14.15;6.28;;;16.70;99.90;;;;;;5018804;28;20044;-90
2022/05/11 07:42:52;;;;;;;14.32;5.97;;;16.80;99.90;;;;;;5004378;28;20049;-90
2022/05/11 07:45:18;;;;;;;15.15;6.15;;;16.70;99.90;;;;;;5017335;28;20126;-90
2022/05/11 07:47:44;;;;;;;15.02;5.78;;;16.80;99.90;;;;;;5004189;28;20045;-89
2022/05/11 07:50:14;;;;;;;14.80;5.10;;;17.00;99.90;;;;;;5011920;28;20042;-90
2022/05/11 07:52:45;;;;;;;13.75;6.07;;;17.00;99.90;;;;;;4999183;28;20406;-91
2022/05/11 07:55:11;;;;;;;10.45;5.43;;;17.00;99.90;;;;;;4998044;28;20033;-89
2022/05/11 08:00:25;;;;;;;15.27;5.75;;;17.10;99.90;;;;;;5021935;28;20383;-89
2022/05/11 08:02:54;;;;;;;16.85;5.32;;;17.10;99.90;;;;;;5007167;28;20394;-89
2022/05/11 08:05:21;;;;;;;12.00;4.80;;;17.10;99.90;;;;;;5003882;28;20124;-89
2022/05/11 08:07:55;;;;;;;14.27;5.28;;;17.10;99.90;;;;;;5009757;28;20044;-89
2022/05/11 08:10:22;;;;;;;13.73;4.72;;;17.20;99.90;;;;;;5020337;28;20083;-90
2022/05/11 08:12:49;;;;;;;11.45;4.93;;;17.40;99.90;;;;;;5002385;28;20124;-91
2022/05/11 08:15:16;;;;;;;8.73;4.40;;;17.40;99.90;;;;;;5003152;28;20326;-91
2022/05/11 08:17:46;;;;;;;11.73;4.78;;;17.40;99.90;;;;;;5020230;28;20048;-90
2022/05/11 08:20:16;;;;;;;11.05;3.85;;;17.60;99.90;;;;;;5018560;28;20126;-89
2022/05/11 08:22:45;;;;;;;8.88;3.90;;;17.30;99.90;;;;;;5003552;28;20132;-89
2022/05/11 08:25:16;;;;;;;12.40;4.15;;;17.30;99.90;;;;;;5004614;28;20351;-90
2022/05/11 08:27:43;;;;;;;9.68;3.70;;;17.40;99.90;;;;;;5006675;28;20049;-90
2022/05/11 08:35:44;;;;;;;9.80;3.92;;;17.80;99.90;;;;;;5020294;28;20566;-89
2022/05/11 08:38:16;;;;;;;10.75;3.88;;;17.80;99.90;;;;;;5016726;28;20049;-89
2022/05/11 08:41:00;;;;;;;11.15;3.53;;;17.90;99.90;;;;;;5001102;28;20071;-90
2022/05/11 08:43:28;;;;;;;12.75;3.60;;;18.00;99.90;;;;;;5018360;28;20525;-90
2022/05/11 08:46:03;;;;;;;13.50;3.50;;;18.10;99.90;;;;;;5018398;28;20079;-89
2022/05/11 08:48:47;;;;;;;7.78;3.53;;;18.00;99.90;;;;;;5007264;28;20040;-89
2022/05/11 08:51:32;;;;;;;12.63;3.73;;;18.10;99.90;;;;;;5018998;28;20060;-88
2022/05/11 08:54:23;;;;;;;11.77;3.42;;;18.10;99.90;;;;;;5003068;28;20284;-89
2022/05/11 08:56:52;;;;;;;10.75;3.70;;;18.10;99.90;;;;;;5017888;28;20029;-90
2022/05/11 08:59:25;;;;;;;11.90;3.45;;;18.40;99.90;;;;;;5005291;28;20041;-90
2022/05/11 09:02:14;;;;;;;12.05;3.55;;;18.70;99.90;;;;;;5006757;28;20123;-89
2022/05/11 09:04:58;;;;;;;9.55;3.25;;;18.50;99.90;;;;;;5003486;28;20379;-91
2022/05/11 09:07:26;;;;;;;8.63;3.08;;;18.50;99.90;;;;;;5002334;28;20121;-90
2022/05/11 09:09:53;;;;;;;13.35;3.60;;;18.10;99.90;;;;;;4999508;28;20099;-88
2022/05/11 09:12:21;;;;;;;12.98;3.83;;;18.40;99.90;;;;;;5019082;28;20037;-89
2022/05/11 09:14:52;;;;;;;16.75;3.92;;;18.60;99.90;;;;;;5017164;28;20078;-91
2022/05/11 09:17:26;;;;;;;12.45;3.40;;;18.60;99.90;;;;;;5000681;28;20402;-89
2022/05/11 09:20:13;;;;;;;10.80;3.10;;;18.30;99.90;;;;;;5003673;28;20039;-90
2022/05/11 09:22:54;;;;;;;10.07;2.85;;;18.80;99.90;;;;;;5006273;28;20037;-90
2022/05/11 09:25:26;;;;;;;9.45;3.40;;;18.30;99.90;;;;;;5000030;28;20040;-91
2022/05/11 09:28:11;;;;;;;13.13;3.25;;;18.20;99.90;;;;;;5000268;28;20065;-91
2022/05/11 09:30:38;;;;;;;12.73;3.53;;;18.20;99.90;;;;;;5000608;28;20037;-90
2022/05/11 09:33:14;;;;;;;13.02;3.70;;;18.20;99.90;;;;;;4999174;28;20037;-90
2022/05/11 09:35:41;;;;;;;12.60;4.00;;;18.90;99.90;;;;;;5015197;28;20117;-89
2022/05/11 09:38:12;;;;;;;9.60;2.97;;;19.60;99.90;;;;;;5022956;28;20051;-90
2022/05/11 09:41:07;;;;;;;12.95;3.38;;;19.10;99.90;;;;;;5018439;28;20121;-90
2022/05/11 09:43:44;;;;;;;10.75;3.08;;;19.20;99.90;;;;;;5028538;28;20079;-90
2022/05/11 09:46:32;;;;;;;13.25;3.67;;;18.80;99.90;;;;;;4999527;28;20104;-90
2022/05/11 09:49:04;;;;;;;12.50;3.50;;;18.80;99.90;;;;;;5020002;28;20279;-91
2022/05/11 09:51:33;;;;;;;11.25;3.17;;;18.90;99.90;;;;;;5007625;28;20052;-88
2022/05/11 09:54:18;;;;;;;13.82;3.75;;;18.90;99.90;;;;;;5005086;28;20387;-90
2022/05/11 09:56:50;;;;;;;11.27;3.10;;;18.50;99.90;;;;;;5017113;28;20037;-90
2022/05/11 09:59:21;;;;;;;11.60;3.20;;;18.20;99.90;;;;;;5017859;28;20065;-90
2022/05/11 10:01:49;;;;;;;9.38;3.00;;;17.90;99.90;;;;;;5023599;28;20041;-89
2022/05/11 10:04:16;;;;;;;12.38;3.78;;;17.90;99.90;;;;;;5004758;28;20047;-90
2022/05/11 10:06:54;;;;;;;13.43;3.65;;;17.80;99.90;;;;;;5008656;28;20183;-90
2022/05/11 10:09:34;;;;;;;13.68;3.58;;;17.80;99.90;;;;;;5005774;28;20041;-90
2022/05/11 10:12:02;;;;;;;9.70;3.47;;;17.90;99.90;;;;;;5021679;28;20076;-89
2022/05/11 10:23:03;;;;;;;13.45;3.53;;;17.80;99.90;;;;;;5018383;28;20516;-89
2022/05/11 10:25:40;;;;;;;12.13;3.58;;;17.90;99.90;;;;;;5007959;28;20037;-90
2022/05/11 10:28:37;;;;;;;10.80;3.47;;;19.00;99.90;;;;;;5002936;28;20190;-90
2022/05/11 10:31:08;;;;;;;11.52;3.85;;;19.20;99.90;;;;;;5034969;28;20041;-90
2022/05/11 10:33:34;;;;;;;14.50;4.45;;;19.50;99.90;;;;;;5011654;28;20129;-90
2022/05/11 10:36:25;;;;;;;13.68;4.22;;;19.70;99.90;;;;;;4998319;28;20041;-89
2022/05/11 10:39:20;;;;;;;14.25;4.00;;;19.40;99.90;;;;;;5000926;28;20081;-90
2022/05/11 10:42:03;;;;;;;12.18;3.42;;;19.10;99.90;;;;;;4988950;28;20037;-90
2022/05/11 10:44:47;;;;;;;10.48;3.55;;;19.50;99.90;;;;;;5013784;28;20202;-91
2022/05/11 10:47:43;;;;;;;15.30;4.35;;;19.80;99.90;;;;;;4999639;28;20045;-90
2022/05/11 10:50:57;;;;;;;14.60;3.78;;;20.30;99.90;;;;;;5015203;28;20091;-91
2022/05/11 10:53:42;;;;;;;10.82;3.17;;;20.10;99.90;;;;;;4988664;28;20044;-90
2022/05/11 10:56:21;;;;;;;9.30;3.05;;;20.30;99.90;;;;;;5012994;28;20045;-91
2022/05/11 10:59:08;;;;;;;12.18;3.35;;;20.50;99.90;;;;;;5006498;28;20409;-89
2022/05/11 11:02:07;;;;;;;12.55;3.53;;;20.90;99.90;;;;;;5017866;28;20041;-90
2022/05/11 11:05:09;;;;;;;8.63;2.65;;;21.40;99.90;;;;;;4968062;28;20676;-90
2022/05/11 11:07:56;;;;;;;9.77;2.92;;;20.60;99.90;;;;;;5001408;28;20042;-92
2022/05/11 11:10:28;;;;;;;12.32;3.05;;;20.40;99.90;;;;;;5016328;28;20248;-90
2022/05/11 11:12:57;;;;;;;9.50;3.33;;;19.90;99.90;;;;;;5013250;28;20038;-90
2022/05/11 11:15:26;;;;;;;15.30;3.35;;;19.60;99.90;;;;;;5012465;28;20128;-90
2022/05/11 11:17:57;;;;;;;13.00;3.92;;;19.70;99.90;;;;;;5003982;28;20392;-90
2022/05/11 11:20:27;;;;;;;9.40;3.42;;;19.70;99.90;;;;;;5012388;28;20036;-91
2022/05/11 11:23:06;;;;;;;8.13;3.13;;;19.30;99.90;;;;;;5001059;28;20088;-90
2022/05/11 11:25:51;;;;;;;14.15;2.83;;;19.90;99.90;;;;;;5013091;28;20346;-90
2022/05/11 11:28:30;;;;;;;9.77;2.92;;;20.20;99.90;;;;;;5013369;28;20103;-90
2022/05/11 11:31:02;;;;;;;6.22;2.25;;;20.50;99.90;;;;;;5002729;28;20049;-90
2022/05/11 11:33:38;;;;;;;13.45;2.50;;;20.60;99.90;;;;;;5001509;28;20099;-90
2022/05/11 11:36:16;;;;;;;8.35;2.75;;;20.70;99.90;;;;;;5038273;28;20067;-90
2022/05/11 11:38:42;;;;;;;5.60;2.22;;;20.10;99.90;;;;;;5039314;28;20041;-90
2022/05/11 11:41:18;;;;;;;7.25;2.20;;;20.90;99.90;;;;;;5037272;28;20127;-89
2022/05/11 11:43:50;;;;;;;7.88;2.13;;;19.90;99.90;;;;;;5054238;28;20051;-90
2022/05/11 11:46:38;;;;;;;6.38;1.88;;;19.90;99.90;;;;;;5034838;28;20557;-89
2022/05/11 11:49:32;;;;;;;11.32;2.50;;;20.40;99.90;;;;;;5038788;28;20065;-90
2022/05/11 11:52:01;;;;;;;8.38;2.60;;;20.10;99.90;;;;;;5026391;28;20271;-92
2022/05/11 11:54:45;;;;;;;10.30;2.42;;;20.30;99.90;;;;;;5019196;28;20511;-90
2022/05/11 11:57:25;;;;;;;9.35;2.08;;;20.80;99.90;;;;;;5039068;28;20480;-90
2022/05/11 11:59:57;;;;;;;3.90;1.38;;;21.40;99.90;;;;;;5018529;28;20044;-90
2022/05/11 12:02:40;;;;;;;14.20;2.38;;;21.60;99.90;;;;;;5037157;28;20419;-90
2022/05/11 12:05:28;;;;;;;10.73;2.05;;;21.90;99.90;;;;;;5022710;28;20041;-92
2022/05/11 12:16:53;;;;;;;7.85;2.08;;;20.80;99.90;;;;;;5035926;28;20041;-90
2022/05/11 12:19:22;;;;;;;6.22;1.83;;;21.10;99.90;;;;;;5025822;28;20034;-90
2022/05/11 12:22:12;;;;;;;8.82;2.17;;;21.10;99.90;;;;;;5029135;28;20127;-89
2022/05/11 12:24:49;;;;;;;5.45;1.52;;;20.60;99.90;;;;;;5036234;28;20046;-91
2022/05/11 12:27:27;;;;;;;6.97;2.03;;;20.30;99.90;;;;;;5025425;28;20496;-90
2022/05/11 12:29:59;;;;;;;7.70;2.20;;;20.70;99.90;;;;;;5036707;28;20579;-90
2022/05/11 12:32:33;;;;;;;9.35;2.00;;;21.50;99.90;;;;;;5017628;28;20149;-91
2022/05/11 12:35:13;;;;;;;9.73;2.30;;;20.90;99.90;;;;;;5039959;28;20066;-90
2022/05/11 12:37:42;;;;;;;7.57;1.80;;;20.30;99.90;;;;;;5041147;28;20050;-92
2022/05/11 12:40:22;;;;;;;7.57;2.13;;;20.30;99.90;;;;;;5030392;28;20273;-91
2022/05/11 12:42:57;;;;;;;9.15;2.10;;;20.40;99.90;;;;;;5020969;28;20658;-90
2022/05/11 12:45:38;;;;;;;8.93;2.03;;;21.30;99.90;;;;;;5019060;28;20043;-92
2022/05/11 12:48:12;;;;;;;7.80;2.10;;;21.70;99.90;;;;;;5023171;28;20051;-90
2022/05/11 12:50:51;;;;;;;8.10;2.28;;;21.40;99.90;;;;;;5038068;28;20040;-91
2022/05/11 12:53:36;;;;;;;6.40;2.15;;;21.20;99.90;;;;;;5039464;28;20052;-90
2022/05/11 12:56:25;;;;;;;10.70;2.22;;;22.10;99.90;;;;;;5028124;28;20056;-91
2022/05/11 12:59:23;;;;;;;14.02;2.97;;;21.80;99.90;;;;;;5038776;28;20037;-91
2022/05/11 13:01:49;;;;;;;11.07;2.38;;;21.50;99.90;;;;;;5021529;28;20072;-89
2022/05/11 13:04:23;;;;;;;10.80;2.35;;;21.50;99.90;;;;;;5038136;28;20505;-91
2022/05/11 13:07:00;;;;;;;12.10;2.58;;;21.50;99.90;;;;;;5030058;28;20461;-91
2022/05/11 13:09:32;;;;;;;8.02;2.33;;;21.40;99.90;;;;;;5030309;28;20040;-90
2022/05/11 13:11:59;;;;;;;9.80;3.10;;;21.40;99.90;;;;;;5040529;28;20486;-91
2022/05/11 13:14:37;;;;;;;8.40;2.28;;;21.60;99.90;;;;;;5021401;28;20043;-91
2022/05/11 13:17:06;;;;;;;8.45;2.40;;;22.00;99.90;;;;;;5043716;28;20040;-90
2022/05/11 13:19:38;;;;;;;11.80;2.45;;;22.10;99.90;;;;;;5041154;28;20049;-90
2022/05/11 13:22:19;;;;;;;9.48;2.17;;;22.20;99.90;;;;;;5038803;28;20033;-91
2022/05/11 13:24:51;;;;;;;13.98;2.28;;;22.30;99.90;;;;;;5025929;28;20276;-91
2022/05/11 13:27:37;;;;;;;8.68;2.05;;;21.80;99.90;;;;;;5022053;28;20145;-90
2022/05/11 13:30:09;;;;;;;8.00;1.80;;;22.30;99.90;;;;;;5042173;28;20036;-91
2022/05/11 13:32:40;;;;;;;7.53;1.92;;;22.60;99.90;;;;;;5025177;28;20055;-90
2022/05/11 13:35:16;;;;;;;12.35;2.22;;;22.20;99.90;;;;;;5039287;28;20095;-91
2022/05/11 13:37:58;;;;;;;8.98;2.30;;;21.80;99.90;;;;;;5024243;28;20078;-91
2022/05/11 13:40:36;;;;;;;9.68;2.17;;;21.80;99.90;;;;;;5022698;28;20116;-90
2022/05/11 13:43:21;;;;;;;7.75;1.90;;;21.20;99.90;;;;;;5025788;28;20287;-92
2022/05/11 13:46:08;;;;;;;11.55;2.80;;;21.50;99.90;;;;;;5037117;28;20068;-92
2022/05/11 13:48:45;;;;;;;7.68;2.33;;;21.20;99.90;;;;;;5041646;28;20044;-92
2022/05/11 13:51:22;;;;;;;8.15;2.13;;;21.20;99.90;;;;;;5040115;28;20557;-92
2022/05/11 13:53:52;;;;;;;9.10;2.42;;;20.70;99.90;;;;;;5021494;28;20060;-91